Tawakoni's Hourly Summary for Saturday, July 7, 2018
Hour Temp
(f)
RH
(%)
Solar Rad.
(MJ/m2)
Rainfall
(in)
Wind
(mph)
7/7/2018 12:00 AM 77 71 0 0 2.12
7/7/2018 1:00 AM 76 72 0 0 1.55
7/7/2018 2:00 AM 75 72 0 0 0.86
7/7/2018 3:00 AM 74 76 0 0 0.16
7/7/2018 4:00 AM 73 81 0 0 0
7/7/2018 5:00 AM 71 88 0 0 0.01
7/7/2018 6:00 AM 70 89 0 0 1.91
7/7/2018 7:00 AM 70 92 0.04 0 1.41
7/7/2018 8:00 AM 72 87 0.39 0 2.89
7/7/2018 9:00 AM 76 76 1 0 5.12
7/7/2018 10:00 AM 79 67 1.67 0 5.02
7/7/2018 11:00 AM 81 65 1.42 0 4.59
7/7/2018 12:00 PM 84 58 2.22 0 4.75
7/7/2018 1:00 PM 86 49 2.79 0 6.15
7/7/2018 2:00 PM 88 41 3.08 0 6.68
7/7/2018 3:00 PM 90 40 3.02 0 6.44
7/7/2018 4:00 PM 91 38 2.76 0 7.11
7/7/2018 5:00 PM 91 37 2.37 0 6.68
7/7/2018 6:00 PM 90 41 1.77 0 8.24
7/7/2018 7:00 PM 89 44 1.08 0 6.47
7/7/2018 8:00 PM 88 44 0.51 0 5.29
7/7/2018 9:00 PM 85 50 0.05 0 2.32
7/7/2018 10:00 PM 83 57 0 0 0.71
7/7/2018 11:00 PM 81 63 0 0 0
Data Summary 80 62 24.17 0.00 3.60